createdAt,value
2022-10-30T00:02:20.393Z,67.50
2022-10-30T00:07:23.305Z,67.40
2022-10-30T00:12:26.907Z,67.70
2022-10-30T00:17:31.409Z,67.40
2022-10-30T00:22:35.053Z,67.30
2022-10-30T00:27:38.104Z,67.30
2022-10-30T00:32:42.707Z,67.30
2022-10-30T00:37:45.374Z,67.30
2022-10-30T00:42:59.527Z,67.40
2022-10-30T00:48:04.316Z,67.30
2022-10-30T00:53:09.911Z,67.00
2022-10-30T00:58:14.774Z,67.20
2022-10-30T01:03:19.153Z,67.30
2022-10-30T01:08:22.003Z,67.10
2022-10-30T01:13:25.152Z,67.10
2022-10-30T01:18:46.038Z,66.90
2022-10-30T01:23:57.181Z,66.90
2022-10-30T01:29:19.697Z,67.20
2022-10-30T01:34:29.001Z,66.90
2022-10-30T01:39:34.302Z,66.90
2022-10-30T01:44:37.420Z,67.00
2022-10-30T01:49:50.438Z,67.10
2022-10-30T01:54:54.871Z,67.00
2022-10-30T02:00:00.132Z,66.90
2022-10-30T02:05:05.104Z,66.90
2022-10-30T02:10:08.116Z,66.70
2022-10-30T02:15:11.281Z,66.80
2022-10-30T02:20:19.272Z,66.80
2022-10-30T02:25:22.716Z,66.80
2022-10-30T02:30:25.478Z,66.80
2022-10-30T02:35:30.283Z,66.80
2022-10-30T02:40:33.048Z,66.90
2022-10-30T02:45:35.733Z,66.60
2022-10-30T02:50:39.749Z,66.70
2022-10-30T02:55:42.371Z,66.70
2022-10-30T03:00:55.077Z,66.50
2022-10-30T03:06:01.043Z,66.70
2022-10-30T03:11:04.438Z,66.60
2022-10-30T03:16:08.576Z,66.60
2022-10-30T03:21:13.390Z,66.60
2022-10-30T03:26:16.020Z,66.40
2022-10-30T03:31:19.621Z,66.40
2022-10-30T03:36:33.912Z,66.40
2022-10-30T03:41:36.580Z,66.60
2022-10-30T03:46:39.201Z,66.20
2022-10-30T03:51:43.192Z,66.30
2022-10-30T03:56:46.127Z,66.40
2022-10-30T04:01:49.150Z,66.30
2022-10-30T04:07:03.740Z,66.30
2022-10-30T04:12:06.579Z,66.40
2022-10-30T04:22:14.263Z,66.30
2022-10-30T04:27:17.060Z,66.20
2022-10-30T04:32:20.914Z,65.90
2022-10-30T04:37:24.944Z,66.00
2022-10-30T04:42:27.571Z,66.20
2022-10-30T04:47:30.686Z,65.80
2022-10-30T04:52:34.673Z,66.00
2022-10-30T04:57:37.645Z,66.00
2022-10-30T05:02:40.623Z,66.10
2022-10-30T05:07:44.778Z,66.10
2022-10-30T05:12:47.507Z,66.00
2022-10-30T05:17:52.175Z,65.80
2022-10-30T05:22:56.904Z,65.90
2022-10-30T05:28:00.626Z,65.90
2022-10-30T05:33:04.600Z,65.90
2022-10-30T05:38:08.598Z,65.70
2022-10-30T05:43:11.264Z,65.70
2022-10-30T05:48:13.907Z,65.90
2022-10-30T05:53:17.905Z,65.50
2022-10-30T05:58:20.981Z,65.70
2022-10-30T06:03:23.693Z,65.70
2022-10-30T06:08:27.727Z,65.80
2022-10-30T06:13:30.434Z,65.40
2022-10-30T06:18:33.085Z,65.60
2022-10-30T06:23:37.361Z,65.80
2022-10-30T06:28:40.044Z,65.60
2022-10-30T06:33:42.702Z,65.70
2022-10-30T06:38:46.814Z,65.30
2022-10-30T06:43:49.500Z,65.50
2022-10-30T06:48:52.211Z,65.50
2022-10-30T06:53:56.210Z,65.40
2022-10-30T06:58:58.838Z,65.30
2022-10-30T07:04:01.626Z,65.40
2022-10-30T07:09:05.631Z,65.30
2022-10-30T07:14:08.253Z,65.10
2022-10-30T07:19:10.972Z,65.20
2022-10-30T07:24:15.036Z,65.20
2022-10-30T07:29:17.671Z,65.50
2022-10-30T07:34:20.328Z,65.00
2022-10-30T07:39:24.522Z,65.20
2022-10-30T07:44:27.221Z,65.20
2022-10-30T07:49:29.838Z,65.00
2022-10-30T07:54:33.961Z,65.00
2022-10-30T07:59:36.638Z,64.90
2022-10-30T08:04:39.333Z,64.80
2022-10-30T08:09:43.404Z,65.00
2022-10-30T08:14:46.060Z,65.00
2022-10-30T08:19:49.424Z,64.90
2022-10-30T08:24:54.969Z,64.70
2022-10-30T08:29:57.600Z,64.70
2022-10-30T08:35:00.222Z,64.80
2022-10-30T08:40:04.429Z,64.70
2022-10-30T08:45:07.591Z,64.80
2022-10-30T08:50:10.657Z,64.80
2022-10-30T08:55:14.768Z,64.70
2022-10-30T09:00:17.561Z,64.90
2022-10-30T09:05:20.400Z,64.80
2022-10-30T09:10:24.504Z,64.90
2022-10-30T09:15:27.598Z,64.60
2022-10-30T09:20:30.950Z,64.70
2022-10-30T09:25:35.122Z,64.80
2022-10-30T09:30:37.810Z,64.80
2022-10-30T09:35:40.504Z,64.90
2022-10-30T09:41:03.170Z,64.80
2022-10-30T09:46:10.241Z,64.70
2022-10-30T09:51:20.422Z,64.70
2022-10-30T09:56:25.792Z,64.80
2022-10-30T10:01:30.034Z,64.70
2022-10-30T10:06:34.692Z,64.60
2022-10-30T10:11:41.088Z,64.70
2022-10-30T10:16:45.016Z,64.70
2022-10-30T10:21:50.213Z,64.70
2022-10-30T10:26:57.513Z,64.70
2022-10-30T10:32:14.158Z,64.60
2022-10-30T10:37:22.602Z,64.50
2022-10-30T10:42:35.217Z,64.60
2022-10-30T10:47:53.257Z,64.30
2022-10-30T10:52:58.787Z,64.70
2022-10-30T10:58:07.021Z,64.40
2022-10-30T11:03:13.014Z,64.60
2022-10-30T11:08:18.158Z,64.50
2022-10-30T11:13:23.911Z,64.60
2022-10-30T11:18:26.569Z,64.20
2022-10-30T11:23:39.941Z,64.50
2022-10-30T11:28:47.264Z,64.30
2022-10-30T11:33:51.645Z,64.40
2022-10-30T11:38:57.339Z,64.70
2022-10-30T11:44:01.363Z,64.60
2022-10-30T11:49:04.033Z,64.50
2022-10-30T11:54:07.726Z,64.40
2022-10-30T11:59:19.425Z,64.50
2022-10-30T12:04:23.658Z,64.70
2022-10-30T12:09:26.321Z,64.70
2022-10-30T12:14:32.968Z,64.60
2022-10-30T12:19:36.185Z,64.60
2022-10-30T12:24:39.875Z,64.50
2022-10-30T12:30:07.440Z,64.50
2022-10-30T12:35:16.178Z,64.60
2022-10-30T12:40:21.222Z,63.30
2022-10-30T12:45:29.021Z,64.50
2022-10-30T12:50:35.034Z,64.50
2022-10-30T12:55:39.340Z,63.60
2022-10-30T13:00:46.850Z,63.50
2022-10-30T13:05:52.603Z,64.40
2022-10-30T13:10:57.624Z,63.60
2022-10-30T13:16:03.235Z,63.30
2022-10-30T13:21:17.891Z,63.40
2022-10-30T13:26:25.085Z,63.30
2022-10-30T13:31:32.296Z,63.30
2022-10-30T13:36:38.012Z,63.30
2022-10-30T13:41:46.573Z,63.20
2022-10-30T13:46:57.846Z,63.20
2022-10-30T13:52:03.391Z,63.10
2022-10-30T13:57:08.073Z,63.20
2022-10-30T14:02:18.472Z,63.10
2022-10-30T14:07:28.395Z,63.00
2022-10-30T14:13:01.401Z,62.80
2022-10-30T14:23:33.709Z,62.80
2022-10-30T14:28:37.016Z,62.80
2022-10-30T14:33:44.535Z,62.70
2022-10-30T14:39:02.074Z,62.80
2022-10-30T14:44:14.459Z,62.70
2022-10-30T14:49:29.708Z,62.70
2022-10-30T14:54:39.733Z,62.30
2022-10-30T14:59:43.055Z,62.50
2022-10-30T15:04:52.010Z,62.30
2022-10-30T15:10:02.316Z,62.40
2022-10-30T15:15:06.041Z,62.40
2022-10-30T15:20:11.564Z,62.50
2022-10-30T15:25:18.933Z,62.50
2022-10-30T15:30:22.313Z,61.80
2022-10-30T15:35:25.911Z,62.10
2022-10-30T15:40:30.712Z,62.60
2022-10-30T15:45:34.630Z,62.30
2022-10-30T15:50:39.782Z,62.60
2022-10-30T15:55:43.802Z,62.80
2022-10-30T16:00:55.844Z,63.10
2022-10-30T16:06:05.367Z,63.30
2022-10-30T16:11:09.387Z,63.40
2022-10-30T16:16:17.568Z,63.60
2022-10-30T16:21:23.372Z,63.60
2022-10-30T16:26:29.900Z,63.50
2022-10-30T16:31:34.407Z,63.80
2022-10-30T16:36:37.107Z,64.10
2022-10-30T16:41:41.305Z,64.00
2022-10-30T16:46:47.696Z,64.20
2022-10-30T16:51:54.093Z,64.30
2022-10-30T16:56:59.084Z,64.20
2022-10-30T17:02:05.838Z,64.30
2022-10-30T17:07:18.601Z,64.50
2022-10-30T17:12:23.054Z,64.40
2022-10-30T17:17:30.293Z,64.70
2022-10-30T17:22:33.036Z,64.50
2022-10-30T17:27:43.675Z,64.70
2022-10-30T17:32:53.396Z,64.60
2022-10-30T17:37:59.673Z,64.80
2022-10-30T17:43:06.646Z,64.50
2022-10-30T17:48:13.456Z,64.70
2022-10-30T17:53:18.261Z,64.60
2022-10-30T17:58:22.300Z,64.80
2022-10-30T18:03:25.636Z,64.70
2022-10-30T18:08:28.212Z,64.70
2022-10-30T18:13:32.370Z,64.70
2022-10-30T18:18:34.996Z,65.00
2022-10-30T18:23:53.647Z,64.70
2022-10-30T18:28:57.871Z,64.90
2022-10-30T18:34:00.466Z,64.90
2022-10-30T18:39:03.416Z,64.80
2022-10-30T18:44:07.475Z,64.80
2022-10-30T18:49:10.067Z,64.90
2022-10-30T18:54:14.375Z,64.90
2022-10-30T18:59:18.384Z,64.90
2022-10-30T19:04:22.403Z,65.10
2022-10-30T19:09:25.264Z,64.80
2022-10-30T19:14:29.191Z,65.10
2022-10-30T19:19:31.767Z,65.00
2022-10-30T19:24:34.355Z,64.90
2022-10-30T19:29:38.287Z,65.10
2022-10-30T19:34:45.613Z,64.90
2022-10-30T19:39:48.193Z,64.90
2022-10-30T19:44:52.133Z,65.00
2022-10-30T19:49:55.279Z,66.10
2022-10-30T19:54:57.928Z,66.10
2022-10-30T20:00:02.470Z,66.20
2022-10-30T20:05:05.946Z,65.90
2022-10-30T20:10:15.089Z,65.10
2022-10-30T20:15:19.899Z,66.10
2022-10-30T20:20:23.796Z,66.00
2022-10-30T20:25:27.308Z,66.00
2022-10-30T20:30:31.828Z,66.00
2022-10-30T20:35:34.405Z,65.00
2022-10-30T20:40:36.995Z,66.10
2022-10-30T20:45:40.921Z,66.10
2022-10-30T20:50:47.711Z,66.00
2022-10-30T20:55:53.061Z,65.90
2022-10-30T21:00:58.037Z,66.20
2022-10-30T21:06:02.177Z,66.10
2022-10-30T21:11:05.591Z,65.90
2022-10-30T21:16:09.823Z,65.90
2022-10-30T21:21:13.368Z,66.10
2022-10-30T21:26:15.952Z,66.10
2022-10-30T21:31:19.897Z,66.20
2022-10-30T21:36:22.486Z,66.20
2022-10-30T21:41:25.674Z,66.10
2022-10-30T21:46:31.203Z,66.10
2022-10-30T21:51:34.548Z,66.00
2022-10-30T21:56:37.123Z,66.00
2022-10-30T22:01:42.076Z,66.10
2022-10-30T22:06:45.115Z,65.90
2022-10-30T22:11:47.710Z,65.90
2022-10-30T22:16:51.627Z,66.00
2022-10-30T22:21:54.209Z,66.00
2022-10-30T22:26:56.832Z,65.80
2022-10-30T22:32:00.768Z,66.00
2022-10-30T22:37:03.356Z,65.90
2022-10-30T22:42:06.133Z,66.00
2022-10-30T22:47:10.425Z,66.00
2022-10-30T22:52:13.048Z,65.70
2022-10-30T22:57:15.628Z,65.90
2022-10-30T23:02:19.567Z,65.90
2022-10-30T23:07:22.152Z,65.60
2022-10-30T23:12:24.727Z,65.80
2022-10-30T23:17:28.643Z,66.00
2022-10-30T23:22:31.353Z,65.90
2022-10-30T23:27:34.195Z,65.80
2022-10-30T23:32:38.132Z,65.70
2022-10-30T23:37:40.707Z,65.90
2022-10-30T23:42:43.492Z,65.90
2022-10-30T23:47:47.429Z,65.90
2022-10-30T23:52:50.079Z,65.90
2022-10-30T23:57:52.648Z,65.90
